Detall de PIREP

Printer-friendly versionPDF version

[2010/05/04 07:54:00]
Flight IATA:CT2112
Pilot Number:041
Company ICAO:CAT
Aircraft Type:B463/A
PAX:58
Departing Airport: LEVC
Destination Airport: LEZL
Alternate Airport:LEMG
Online: VATSIM
Route:ASTRO1F B28 POBOS B28 XEBAR B28 YES R47 BLN
Flight Level:FL210
No Slew and time accel
No pause
Crash detect
Detect pilot in Cockpit between each 30 and 45 minutes
07:54 Zero fuel Weight: 71500 Lbs, Fuel Weight: 10211 Lbs
07:54 VATSIM:LEVC 040730Z 32018KT 9999 FEW035 13/00 Q1004 NOSIG
07:54 VATSIM:LEZL 040700Z 02008KT 340V060 CAVOK 14/03 Q1013 NOSIG
07:54 VOICE CATALONIAN
08:03 Parking Brakes off
08:12 Take-off
08:12 Take off Weight: 81144 Lbs
08:12 Wind: 329º @ 057 Knots Heading: 303º
08:12 POS N39º 29´ 16´´ W000º 28´ 41´´
08:12 Flaps:1 at 202 Knots
08:12 Gear Up: 190 Knots
08:13 Flaps:0 at 218 Knots
08:18 Gear Down: 265 Knots
08:18 Gear Up: 264 Knots
08:18 TOC
08:18
Fuel Weight: 8559 Lb
08:26 TOD
08:26 Fuel Weight: 7955 Lb
08:27 Wind:325º@020 Knots Heading: 231º Ground Speed: 334 Knots Altitude 19652 ft
08:42 Wind:312º@021 Knots Heading: 261º Ground Speed: 241 Knots Altitude 5000 ft
08:57 Wind:005º@015 Knots Heading: 248º Ground Speed: 268 Knots Altitude 5055 ft
09:11 Flaps:1 at 214 Knots
09:12 Wind:024º@014 Knots Heading: 268º Ground Speed: 188 Knots Altitude 2942 ft
09:12 Flaps:2 at 167 Knots
09:12 Gear Down: 165 Knots
09:14 TouchDown:Rate -54 ft/min Speed: 125 Knots
09:14 VATSIM:LEZL 040900Z 03014KT CAVOK 16/M02 Q1014 NOSIG
09:15 Land
09:15 Wind:029º@014 Knots
09:15 Heading: 266º
09:15 Flight Duration: 01:03
09:15 Landing Weight: 76603 Lbs
09:15 POS N37º 25´ 04´´ W005º 53´ 30´´
09:18 Parking brakes on
09:18 Block to Block Duration: 01:15
09:18 Final Fuel: 5000 Lbls
09:18 Spent Fuel: 5211 Lbls
09:18 Flight Len
gth: 287 NM
09:18 TOD Land Length: 213 NM

Exportar CSV

Powered by Drupal - Modified by Danger4k